Time;durP1;ratioP1;P1;durP2;ratioP2;P2;SDS_P1;SDS_P2;PMS_P1;PMS_P2;Temp;Humidity;BMP_temperature;BMP_pressure;BME280_temperature;BME280_humidity;BME280_pressure;Samples;Min_cycle;Max_cycle;Signal;HPM_P1;HPM_P2
2021/12/07 00:01:49;;;;;;;30.30;17.00;;;;;;;14.00;63.16;99760.11;117369;1185;21854;-55
2021/12/07 00:04:18;;;;;;;25.40;15.70;;;;;;;14.00;63.29;99760.48;117347;1187;21849;-56
2021/12/07 00:06:47;;;;;;;27.90;17.40;;;;;;;13.99;63.22;99755.73;117347;1186;21865;-57
2021/12/07 00:09:16;;;;;;;27.40;16.20;;;;;;;14.00;63.28;99756.75;117374;1182;21861;-57
2021/12/07 00:11:46;;;;;;;29.10;16.80;;;;;;;13.99;63.19;99759.27;117474;1186;23518;-57
2021/12/07 00:14:22;;;;;;;23.00;14.30;;;;;;;13.95;63.21;99761.00;117366;1186;22913;-59
2021/12/07 00:16:52;;;;;;;29.00;15.60;;;;;;;13.92;63.15;99760.23;117312;1186;21847;-56
2021/12/07 00:19:21;;;;;;;27.70;15.50;;;;;;;13.87;63.05;99760.92;117318;1187;22822;-59
2021/12/07 00:21:50;;;;;;;28.30;17.20;;;;;;;13.81;63.10;99758.67;117330;1184;22912;-59
2021/12/07 00:24:18;;;;;;;28.00;15.40;;;;;;;13.76;63.16;99762.36;117300;1186;21854;-57
2021/12/07 00:26:46;;;;;;;24.20;15.40;;;;;;;13.71;63.15;99765.89;117387;1186;22001;-59
2021/12/07 00:29:15;;;;;;;29.60;15.00;;;;;;;13.67;63.00;99760.20;117347;1186;21859;-59
2021/12/07 00:31:51;;;;;;;29.00;15.20;;;;;;;13.63;63.04;99763.70;117429;1184;21848;-57
2021/12/07 00:34:45;;;;;;;27.10;15.00;;;;;;;13.58;62.97;99768.46;117295;1186;22833;-57
2021/12/07 00:37:13;;;;;;;28.80;16.40;;;;;;;13.55;63.08;99765.04;117345;1186;21856;-57
2021/12/07 00:39:41;;;;;;;32.00;16.00;;;;;;;13.52;63.08;99759.65;117354;1184;21903;-57
2021/12/07 00:42:09;;;;;;;29.70;16.80;;;;;;;13.50;63.15;99759.18;117274;1181;21865;-60
2021/12/07 00:44:37;;;;;;;30.40;16.60;;;;;;;13.47;63.15;99746.25;117336;1184;21859;-56
2021/12/07 00:47:05;;;;;;;24.00;15.50;;;;;;;13.47;63.15;99739.05;117378;1186;21856;-59
2021/12/07 00:49:33;;;;;;;25.40;15.70;;;;;;;13.46;63.16;99736.27;117365;1184;21857;-59
2021/12/07 00:52:03;;;;;;;27.40;15.60;;;;;;;13.45;63.16;99735.61;117472;1185;21909;-59
2021/12/07 00:54:31;;;;;;;28.40;15.50;;;;;;;13.43;63.14;99740.43;117405;1185;22320;-57
2021/12/07 00:57:02;;;;;;;26.00;14.70;;;;;;;13.41;63.20;99742.58;117374;1186;21862;-57
2021/12/07 00:59:30;;;;;;;;;;;;;;;13.38;63.09;99749.17;117385;1183;21838;-57
2021/12/07 01:01:59;;;;;;;27.80;15.40;;;;;;;13.39;63.17;99752.48;117408;1186;22096;-57
2021/12/07 01:04:28;;;;;;;27.60;15.70;;;;;;;13.38;63.15;99744.59;117413;1184;21916;-57
2021/12/07 01:24:39;;;;;;;31.50;16.70;;;;;;;13.37;63.25;99732.64;117307;1184;21855;-59
2021/12/07 01:26:25;;;;;;;25.30;16.30;;;;;;;13.33;63.28;99723.98;117292;1181;22911;-60
2021/12/07 01:28:53;;;;;;;25.00;15.90;;;;;;;13.33;63.26;99720.80;117307;1182;21866;-57
2021/12/07 01:31:29;;;;;;;27.00;15.70;;;;;;;13.33;63.26;99720.29;117310;1188;21895;-57
2021/12/07 01:37:09;;;;;;;30.00;16.20;;;;;;;13.32;63.20;99720.49;117339;1184;21890;-60
2021/12/07 02:01:47;;;;;;;25.90;13.30;;;;;;;13.30;63.28;99708.91;116948;1188;23542;-56
2021/12/07 02:04:15;;;;;;;24.60;14.10;;;;;;;13.28;63.23;99712.17;116947;1192;21849;-59
2021/12/07 02:06:43;;;;;;;28.00;14.90;;;;;;;13.26;63.38;99710.13;116995;1188;23455;-57
2021/12/07 02:09:12;;;;;;;25.30;13.50;;;;;;;13.25;63.19;99710.52;117019;1188;21838;-60
2021/12/07 02:11:47;;;;;;;28.10;14.30;;;;;;;13.22;63.34;99707.06;117080;1188;22915;-60
2021/12/07 02:14:16;;;;;;;28.50;13.00;;;;;;;13.19;63.30;99703.11;117022;1185;21853;-58
2021/12/07 02:16:53;;;;;;;25.80;13.40;;;;;;;13.15;63.36;99702.05;117024;1185;22862;-60
2021/12/07 02:19:21;;;;;;;24.30;12.70;;;;;;;13.10;63.59;99694.63;117044;1188;22933;-57
2021/12/07 02:21:50;;;;;;;25.50;12.40;;;;;;;13.08;63.74;99696.80;117195;1186;22958;-57
2021/12/07 02:24:18;;;;;;;24.50;13.60;;;;;;;13.08;63.56;99696.63;117135;1187;23683;-57
2021/12/07 02:26:47;;;;;;;24.00;12.90;;;;;;;13.07;63.51;99699.98;117252;1186;21859;-58
2021/12/07 02:29:16;;;;;;;26.50;13.10;;;;;;;13.08;63.67;99703.30;117351;1185;22916;-58
2021/12/07 02:31:44;;;;;;;29.20;13.40;;;;;;;13.08;63.58;99692.75;117342;1185;21866;-57
2021/12/07 02:34:13;;;;;;;27.80;14.50;;;;;;;13.08;63.62;99689.58;117378;1186;21847;-57
2021/12/07 02:36:41;;;;;;;27.50;13.80;;;;;;;13.13;63.60;99684.30;117312;1184;23564;-57
2021/12/07 02:39:11;;;;;;;29.20;12.90;;;;;;;13.17;63.65;99685.05;117076;1187;21856;-56
2021/12/07 02:41:39;;;;;;;30.30;13.50;;;;;;;13.21;63.70;99682.10;117182;1186;23568;-56
2021/12/07 02:44:07;;;;;;;26.00;13.40;;;;;;;13.24;63.52;99677.77;117158;1184;21860;-59
2021/12/07 02:46:37;;;;;;;26.10;14.50;;;;;;;13.27;63.54;99676.97;117230;1186;21854;-59
2021/12/07 02:49:07;;;;;;;26.80;13.50;;;;;;;13.27;63.39;99676.77;117353;1185;21841;-59
2021/12/07 02:51:35;;;;;;;24.90;12.80;;;;;;;13.27;63.37;99674.14;117300;1185;21891;-59
2021/12/07 02:54:04;;;;;;;27.70;12.90;;;;;;;13.29;63.27;99678.30;117353;1183;24149;-59
2021/12/07 02:56:33;;;;;;;27.00;12.70;;;;;;;13.26;63.28;99685.27;117077;1188;21988;-57
2021/12/07 02:59:03;;;;;;;23.10;12.10;;;;;;;13.21;63.27;99685.43;117288;1185;21871;-57
2021/12/07 03:01:35;;;;;;;21.40;13.50;;;;;;;13.19;63.38;99690.82;117344;1185;23433;-57
2021/12/07 03:04:12;;;;;;;26.70;11.50;;;;;;;13.18;63.22;99689.26;117312;1186;23560;-59
2021/12/07 03:06:51;;;;;;;26.00;12.50;;;;;;;13.16;63.33;99688.78;117246;1185;21855;-57
2021/12/07 03:26:10;;;;;;;30.00;14.00;;;;;;;13.26;63.35;99685.98;117405;1183;21852;-60
2021/12/07 03:28:43;;;;;;;24.90;13.20;;;;;;;13.26;63.13;99680.70;117430;1186;22917;-57
2021/12/07 03:31:11;;;;;;;30.20;13.40;;;;;;;13.24;63.39;99680.42;117412;1185;21985;-57
2021/12/07 03:33:39;;;;;;;28.10;12.50;;;;;;;13.23;63.06;99680.97;117566;1186;21867;-58
2021/12/07 03:36:08;;;;;;;23.50;12.30;;;;;;;13.22;63.12;99684.17;117362;1183;21864;-60
2021/12/07 03:38:37;;;;;;;21.90;12.70;;;;;;;13.19;63.35;99685.52;117370;1188;21857;-59
2021/12/07 03:41:06;;;;;;;20.20;12.60;;;;;;;13.19;63.40;99676.89;117394;1185;21864;-57
2021/12/07 03:43:34;;;;;;;25.70;13.30;;;;;;;13.21;63.36;99671.54;117407;1182;23022;-60
2021/12/07 03:46:04;;;;;;;24.80;14.00;;;;;;;13.20;63.38;99674.91;117310;1186;21856;-59
2021/12/07 03:48:33;;;;;;;26.00;14.70;;;;;;;13.19;63.45;99676.89;117399;1186;21858;-58
2021/12/07 03:51:01;;;;;;;26.40;14.20;;;;;;;13.18;63.47;99677.63;117371;1185;21869;-60
2021/12/07 03:53:29;;;;;;;25.60;13.40;;;;;;;13.17;63.43;99670.42;117418;1186;22951;-60
2021/12/07 03:55:58;;;;;;;19.90;12.70;;;;;;;13.16;63.65;99674.34;117418;1183;21858;-60
2021/12/07 03:58:26;;;;;;;28.10;14.60;;;;;;;13.18;63.54;99678.31;117463;1184;21999;-58
2021/12/07 04:00:54;;;;;;;29.90;13.10;;;;;;;13.21;63.41;99676.63;117504;1185;21855;-60
2021/12/07 04:03:23;;;;;;;28.90;13.60;;;;;;;13.24;63.36;99674.43;117384;1185;21899;-60
2021/12/07 04:05:55;;;;;;;25.80;13.00;;;;;;;13.27;63.29;99681.37;117368;1183;21864;-57
2021/12/07 04:08:25;;;;;;;32.10;13.90;;;;;;;13.28;63.49;99677.80;117322;1185;21857;-57
2021/12/07 04:10:54;;;;;;;19.50;13.20;;;;;;;13.27;63.48;99674.68;117324;1186;23521;-60
2021/12/07 04:13:23;;;;;;;27.20;12.90;;;;;;;13.28;63.58;99672.52;117420;1185;22811;-57
2021/12/07 04:15:51;;;;;;;21.60;12.80;;;;;;;13.35;63.30;99676.70;117338;1183;24174;-57
2021/12/07 04:18:20;;;;;;;25.90;12.40;;;;;;;13.37;63.31;99675.19;117349;1185;24139;-58
2021/12/07 04:20:49;;;;;;;17.10;10.80;;;;;;;13.41;63.33;99675.98;117305;1185;21858;-58
2021/12/07 04:23:17;;;;;;;25.60;11.20;;;;;;;13.43;63.14;99673.46;117280;1182;21870;-58
2021/12/07 04:25:45;;;;;;;23.40;11.70;;;;;;;13.44;63.20;99670.10;117236;1184;23455;-55
2021/12/07 04:28:13;;;;;;;19.70;11.10;;;;;;;13.44;63.21;99666.02;117245;1186;21852;-57
2021/12/07 04:30:42;;;;;;;19.70;10.10;;;;;;;13.43;63.39;99660.07;117146;1186;23542;-56
2021/12/07 04:33:12;;;;;;;20.60;10.00;;;;;;;13.53;63.30;99659.16;117356;1185;23635;-56
2021/12/07 04:35:44;;;;;;;17.50;9.40;;;;;;;13.58;63.37;99656.38;117376;1185;21863;-60
2021/12/07 04:38:13;;;;;;;17.80;9.40;;;;;;;13.63;63.26;99651.56;117442;1185;23127;-60
2021/12/07 04:40:41;;;;;;;16.30;9.40;;;;;;;13.68;63.20;99653.69;117392;1186;21856;-60
2021/12/07 04:43:10;;;;;;;16.10;9.60;;;;;;;13.72;63.33;99652.14;117329;1189;21857;-61
2021/12/07 04:46:10;;;;;;;19.00;8.30;;;;;;;13.76;63.42;99650.42;117358;1189;22932;-56
2021/12/07 04:59:39;;;;;;;18.70;11.30;;;;;;;13.76;63.65;99660.79;117315;1182;21849;-55
2021/12/07 05:02:08;;;;;;;21.10;11.90;;;;;;;13.88;63.49;99649.95;117312;1185;21852;-61
2021/12/07 05:04:37;;;;;;;17.00;10.90;;;;;;;13.93;63.34;99646.95;117350;1183;21873;-61
2021/12/07 05:07:15;;;;;;;19.50;11.30;;;;;;;13.92;63.51;99648.73;117326;1186;23457;-55
2021/12/07 05:14:58;;;;;;;14.10;9.50;;;;;;;14.01;63.55;99652.13;117360;1186;22902;-57
2021/12/07 05:17:55;;;;;;;15.80;9.30;;;;;;;13.97;63.62;99643.63;117360;1185;22811;-56
2021/12/07 05:39:28;;;;;;;14.10;8.60;;;;;;;14.10;63.81;99620.55;117279;1186;21848;-56
2021/12/07 05:41:56;;;;;;;14.40;8.40;;;;;;;14.06;63.86;99624.96;117327;1186;21851;-56
2021/12/07 05:44:24;;;;;;;13.10;8.10;;;;;;;14.06;63.95;99622.13;117095;1186;21859;-56
2021/12/07 05:46:53;;;;;;;10.30;7.60;;;;;;;14.01;64.02;99617.38;117318;1186;21879;-61
2021/12/07 05:49:22;;;;;;;10.80;7.90;;;;;;;13.97;64.14;99613.30;117296;1185;21869;-56
2021/12/07 05:51:53;;;;;;;11.80;7.60;;;;;;;13.96;64.12;99620.73;117264;1186;21864;-58
2021/12/07 05:54:21;;;;;;;14.70;8.10;;;;;;;13.96;64.11;99617.91;117325;1189;21833;-58
2021/12/07 05:56:50;;;;;;;13.20;8.10;;;;;;;13.95;64.08;99617.77;117293;1188;21904;-62
2021/12/07 05:59:19;;;;;;;10.80;7.70;;;;;;;13.95;64.10;99618.50;117280;1185;23455;-62
2021/12/07 06:01:48;;;;;;;15.30;9.20;;;;;;;13.94;64.01;99613.60;117117;1186;22091;-62
2021/12/07 06:04:16;;;;;;;12.30;9.40;;;;;;;13.92;64.09;99612.57;117310;1186;21856;-62
2021/12/07 06:06:45;;;;;;;16.30;10.20;;;;;;;13.91;63.98;99614.56;117269;1186;23547;-58
2021/12/07 06:09:13;;;;;;;14.30;10.70;;;;;;;13.91;64.08;99615.09;117263;1183;24145;-62
2021/12/07 06:11:44;;;;;;;14.90;10.80;;;;;;;13.92;64.00;99621.60;117269;1182;24135;-57
2021/12/07 06:14:18;;;;;;;18.10;11.20;;;;;;;13.94;63.92;99620.79;117334;1185;21892;-59
2021/12/07 06:16:47;;;;;;;17.30;12.30;;;;;;;13.93;63.80;99618.04;117353;1182;23453;-62
2021/12/07 06:19:15;;;;;;;18.20;12.10;;;;;;;13.94;63.96;99613.56;117355;1186;24010;-61
2021/12/07 06:21:44;;;;;;;17.10;12.30;;;;;;;14.01;63.86;99605.73;117281;1186;21845;-56
2021/12/07 06:24:12;;;;;;;16.50;12.00;;;;;;;14.07;63.68;99609.54;117336;1185;23433;-56
2021/12/07 06:26:41;;;;;;;18.80;12.00;;;;;;;14.09;63.62;99614.96;117402;1185;21848;-60
2021/12/07 06:29:09;;;;;;;22.70;13.30;;;;;;;14.08;63.54;99616.57;117348;1186;21983;-61
2021/12/07 06:31:41;;;;;;;18.60;11.90;;;;;;;14.06;63.58;99626.16;117276;1185;23510;-56
2021/12/07 06:34:10;;;;;;;21.00;12.10;;;;;;;14.06;63.64;99628.82;117361;1186;21912;-60
2021/12/07 06:36:39;;;;;;;17.50;12.30;;;;;;;14.05;63.71;99631.14;117340;1186;21848;-63
2021/12/07 06:39:08;;;;;;;20.60;13.20;;;;;;;14.07;63.56;99639.73;117301;1189;21857;-57
2021/12/07 06:41:36;;;;;;;23.40;13.30;;;;;;;14.06;63.80;99640.30;117109;1188;23437;-62
2021/12/07 06:44:04;;;;;;;22.50;14.30;;;;;;;14.06;63.70;99638.17;117323;1185;22912;-57
2021/12/07 06:46:33;;;;;;;19.20;13.20;;;;;;;14.08;63.62;99644.45;117397;1186;23494;-62
2021/12/07 06:49:01;;;;;;;19.40;13.90;;;;;;;14.04;63.75;99646.18;117303;1186;22914;-63
2021/12/07 06:51:29;;;;;;;22.70;15.00;;;;;;;14.02;63.74;99645.38;117404;1186;23564;-61
2021/12/07 06:53:57;;;;;;;23.10;13.90;;;;;;;14.04;63.75;99644.60;117284;1185;21898;-62
2021/12/07 06:56:28;;;;;;;24.90;14.80;;;;;;;14.05;63.81;99642.27;117316;1185;21859;-62
2021/12/07 06:59:04;;;;;;;27.80;14.90;;;;;;;14.06;63.78;99645.39;117257;1186;21900;-57
2021/12/07 07:01:32;;;;;;;22.30;13.50;;;;;;;14.08;63.86;99638.64;117351;1185;21846;-55
2021/12/07 07:04:01;;;;;;;29.60;13.70;;;;;;;14.08;63.81;99636.85;117393;1186;21844;-56
2021/12/07 07:06:29;;;;;;;24.20;14.00;;;;;;;14.54;62.83;99625.51;117504;1185;22147;-56
2021/12/07 07:08:57;;;;;;;19.30;12.40;;;;;;;14.15;63.74;99629.34;117319;1185;21912;-56
2021/12/07 07:11:26;;;;;;;25.80;13.80;;;;;;;14.19;63.67;99626.38;117330;1185;21847;-61
2021/12/07 07:13:54;;;;;;;22.30;13.10;;;;;;;14.17;63.78;99620.09;117263;1185;21858;-56
2021/12/07 07:16:22;;;;;;;26.60;13.50;;;;;;;14.17;63.69;99615.51;117321;1186;21859;-56
2021/12/07 07:18:51;;;;;;;24.20;13.60;;;;;;;14.20;63.62;99612.92;117330;1186;21847;-62
2021/12/07 07:21:19;;;;;;;25.00;14.30;;;;;;;14.22;63.64;99614.44;117309;1186;21849;-57
2021/12/07 07:23:47;;;;;;;23.40;13.50;;;;;;;14.25;63.59;99612.55;117354;1184;21859;-57
2021/12/07 07:26:15;;;;;;;25.40;14.20;;;;;;;14.25;63.64;99616.63;117425;1185;21848;-58
2021/12/07 07:28:44;;;;;;;26.50;15.40;;;;;;;14.26;63.58;99613.41;117344;1185;23633;-58
2021/12/07 07:31:12;;;;;;;20.80;14.60;;;;;;;14.26;63.60;99617.45;117387;1185;21864;-57
2021/12/07 07:33:40;;;;;;;22.00;14.40;;;;;;;14.29;63.62;99619.46;117291;1185;22733;-58
2021/12/07 07:36:10;;;;;;;23.30;14.10;;;;;;;14.29;63.44;99619.27;117372;1186;21900;-57
2021/12/07 07:38:38;;;;;;;27.00;14.40;;;;;;;14.22;63.65;99618.31;117312;1186;23549;-63
2021/12/07 07:41:07;;;;;;;25.70;13.60;;;;;;;14.21;63.70;99621.17;117383;1186;21898;-64
2021/12/07 07:43:36;;;;;;;29.20;14.50;;;;;;;14.17;63.83;99620.27;117311;1185;21968;-57
2021/12/07 07:46:04;;;;;;;23.60;14.60;;;;;;;14.17;63.88;99616.04;117354;1186;21855;-61
2021/12/07 07:48:33;;;;;;;22.00;13.90;;;;;;;14.18;63.83;99607.90;117360;1186;21864;-57
2021/12/07 07:51:02;;;;;;;24.60;14.40;;;;;;;14.16;63.90;99607.09;117333;1189;23561;-61
2021/12/07 07:53:31;;;;;;;20.50;13.50;;;;;;;14.15;63.83;99603.61;117323;1186;22621;-61
2021/12/07 07:55:59;;;;;;;24.90;14.90;;;;;;;14.16;63.88;99601.46;117255;1186;21858;-58
2021/12/07 07:58:28;;;;;;;22.20;14.40;;;;;;;14.16;63.88;99606.55;117319;1186;21860;-57
2021/12/07 08:00:58;;;;;;;22.70;14.40;;;;;;;14.15;63.95;99615.77;117297;1186;22979;-57
2021/12/07 08:03:26;;;;;;;26.60;16.00;;;;;;;14.16;63.93;99618.40;117315;1185;21869;-57
2021/12/07 08:05:55;;;;;;;23.00;15.60;;;;;;;14.16;64.07;99622.64;117298;1185;23538;-57
2021/12/07 08:08:23;;;;;;;26.90;16.00;;;;;;;14.16;64.03;99624.73;117186;1186;21856;-63
2021/12/07 08:10:51;;;;;;;26.10;15.50;;;;;;;14.17;63.99;99621.33;117314;1186;23527;-56
2021/12/07 08:13:20;;;;;;;28.60;16.60;;;;;;;14.20;64.06;99626.35;117332;1186;23463;-62
2021/12/07 08:15:49;;;;;;;29.90;16.30;;;;;;;14.20;64.11;99621.56;117319;1183;22912;-66
2021/12/07 08:18:18;;;;;;;23.70;15.20;;;;;;;14.20;64.01;99619.63;117307;1185;21856;-63
2021/12/07 08:20:50;;;;;;;27.80;16.60;;;;;;;14.24;63.92;99622.84;117315;1183;22711;-63
2021/12/07 08:23:19;;;;;;;22.50;15.80;;;;;;;14.27;64.10;99624.65;117285;1185;22964;-57
2021/12/07 08:28:51;;;;;;;24.20;16.20;;;;;;;14.42;64.10;99622.46;117259;1183;22312;-63
2021/12/07 08:31:21;;;;;;;26.40;16.50;;;;;;;14.48;64.03;99616.78;117288;1183;24214;-62
2021/12/07 08:34:00;;;;;;;31.50;16.60;;;;;;;14.56;64.19;99613.08;117293;1185;21857;-61
2021/12/07 08:36:31;;;;;;;27.40;16.50;;;;;;;14.64;64.14;99606.75;117272;1186;21907;-61
2021/12/07 08:39:00;;;;;;;25.70;17.20;;;;;;;14.70;64.09;99604.02;117055;1187;21848;-62
2021/12/07 08:41:29;;;;;;;26.50;17.10;;;;;;;14.75;63.98;99603.88;117136;1186;21850;-57
2021/12/07 08:43:59;;;;;;;31.90;17.80;;;;;;;14.77;64.02;99609.25;117310;1186;22916;-57
2021/12/07 08:46:29;;;;;;;25.90;16.80;;;;;;;15.02;63.52;99606.05;117036;1186;21848;-57
2021/12/07 08:49:03;;;;;;;29.70;18.90;;;;;;;15.90;61.58;99602.39;117380;1185;21928;-56
2021/12/07 08:51:33;;;;;;;31.70;19.30;;;;;;;16.08;61.19;99595.70;117331;1183;21868;-61
2021/12/07 08:54:27;;;;;;;31.00;19.90;;;;;;;16.15;60.94;99589.86;117399;1183;23434;-56
2021/12/07 08:59:45;;;;;;;31.90;19.90;;;;;;;16.25;60.70;99571.70;117287;1186;23524;-66
2021/12/07 09:02:16;;;;;;;27.80;17.90;;;;;;;16.27;60.66;99572.86;117152;1187;22088;-58
2021/12/07 09:04:51;;;;;;;32.00;17.20;;;;;;;16.28;60.63;99572.08;117229;1189;21912;-63
2021/12/07 09:07:20;;;;;;;27.10;16.60;;;;;;;16.36;60.50;99567.26;117302;1185;22907;-63
2021/12/07 09:09:51;;;;;;;29.20;16.30;;;;;;;16.37;60.39;99567.92;117383;1176;21898;-61
2021/12/07 09:12:26;;;;;;;28.20;16.00;;;;;;;16.30;60.59;99568.64;117303;1182;21855;-56
2021/12/07 09:14:55;;;;;;;31.40;17.10;;;;;;;16.29;60.53;99564.62;117329;1185;21858;-56
2021/12/07 09:17:23;;;;;;;27.50;17.00;;;;;;;16.28;60.52;99569.78;117452;1185;21860;-57
2021/12/07 09:19:51;;;;;;;25.90;17.30;;;;;;;16.27;60.57;99563.49;117325;1185;21857;-61
2021/12/07 09:22:20;;;;;;;25.40;16.20;;;;;;;16.26;60.49;99562.64;117404;1186;21906;-61
2021/12/07 09:24:56;;;;;;;23.90;14.90;;;;;;;16.25;60.49;99558.80;117382;1186;21857;-57
2021/12/07 09:27:24;;;;;;;23.20;16.00;;;;;;;16.25;60.47;99551.37;117399;1183;22824;-60
2021/12/07 09:29:52;;;;;;;22.70;15.40;;;;;;;16.26;60.36;99546.52;117395;1186;23432;-60
2021/12/07 09:32:21;;;;;;;32.20;16.80;;;;;;;16.27;60.39;99540.83;117434;1186;21861;-57
2021/12/07 09:34:49;;;;;;;24.90;15.80;;;;;;;16.29;60.29;99540.89;117337;1183;23435;-60
2021/12/07 09:37:18;;;;;;;25.80;15.70;;;;;;;16.27;60.41;99543.13;117379;1185;21866;-61
2021/12/07 09:39:46;;;;;;;26.00;15.90;;;;;;;16.28;60.51;99535.64;117289;1186;22932;-57
2021/12/07 09:42:14;;;;;;;26.70;16.00;;;;;;;16.28;60.51;99520.61;117314;1182;23547;-58
2021/12/07 09:44:42;;;;;;;22.30;16.00;;;;;;;16.30;60.45;99521.39;117302;1186;23468;-62
2021/12/07 09:47:11;;;;;;;29.20;17.20;;;;;;;16.33;60.48;99523.34;117288;1182;23429;-60
2021/12/07 09:49:39;;;;;;;28.00;16.20;;;;;;;16.34;60.48;99515.65;117284;1185;21855;-59
2021/12/07 09:52:11;;;;;;;27.30;17.80;;;;;;;16.39;60.46;99515.27;117234;1185;21843;-59
2021/12/07 09:54:40;;;;;;;24.20;16.40;;;;;;;16.41;60.47;99510.17;117345;1185;21858;-62
2021/12/07 09:57:08;;;;;;;27.30;17.00;;;;;;;16.45;60.43;99507.69;117239;1183;23458;-59
2021/12/07 09:59:36;;;;;;;24.90;15.80;;;;;;;16.47;60.57;99506.69;117340;1183;21868;-60
2021/12/07 10:02:07;;;;;;;27.60;16.70;;;;;;;16.50;60.47;99509.58;117310;1182;23432;-60
2021/12/07 10:04:35;;;;;;;25.40;15.50;;;;;;;16.51;60.40;99513.41;117372;1185;21864;-62
2021/12/07 10:07:18;;;;;;;30.80;16.10;;;;;;;16.53;60.32;99513.69;117330;1186;23455;-59
2021/12/07 10:09:47;;;;;;;29.50;16.60;;;;;;;16.53;60.39;99511.75;117298;1182;21856;-63
2021/12/07 10:12:18;;;;;;;29.50;17.40;;;;;;;16.51;60.23;99515.70;117145;1186;21883;-62
2021/12/07 10:14:47;;;;;;;28.70;17.00;;;;;;;16.52;60.21;99515.85;117235;1185;21858;-62
2021/12/07 10:17:21;;;;;;;27.40;17.30;;;;;;;16.53;60.22;99511.77;117345;1185;21858;-62
2021/12/07 10:19:49;;;;;;;30.10;16.70;;;;;;;16.54;60.17;99509.77;117330;1186;21860;-56
2021/12/07 10:22:21;;;;;;;21.80;15.40;;;;;;;16.51;60.35;99510.42;117361;1184;22626;-58
2021/12/07 10:24:54;;;;;;;24.30;17.00;;;;;;;16.54;60.37;99508.86;117308;1185;21857;-62
2021/12/07 10:27:31;;;;;;;25.50;15.50;;;;;;;16.57;60.30;99510.99;117393;1185;23229;-56
2021/12/07 10:30:03;;;;;;;30.20;16.50;;;;;;;16.62;60.36;99503.30;117366;1182;23462;-62
2021/12/07 10:32:31;;;;;;;23.20;15.90;;;;;;;16.64;60.33;99500.18;117342;1185;21872;-62
2021/12/07 10:34:59;;;;;;;23.10;15.80;;;;;;;16.69;60.18;99500.63;117424;1186;23434;-61
2021/12/07 10:37:31;;;;;;;25.40;16.40;;;;;;;16.72;60.24;99498.73;117124;1186;23439;-61
2021/12/07 10:40:00;;;;;;;27.50;16.30;;;;;;;16.79;60.05;99503.11;117374;1185;21871;-56
2021/12/07 10:42:29;;;;;;;24.50;16.90;;;;;;;16.88;59.85;99496.27;117360;1186;22019;-56
2021/12/07 10:45:05;;;;;;;24.90;16.10;;;;;;;16.92;59.80;99488.98;117276;1186;21859;-62
2021/12/07 10:47:33;;;;;;;28.80;17.40;;;;;;;16.98;59.78;99489.45;117281;1186;22903;-62
2021/12/07 10:50:08;;;;;;;28.90;17.10;;;;;;;17.02;59.81;99484.98;117336;1179;21866;-64
2021/12/07 10:52:40;;;;;;;29.70;17.00;;;;;;;17.06;59.82;99480.16;117255;1186;21859;-56
2021/12/07 10:55:16;;;;;;;27.60;16.90;;;;;;;17.13;59.65;99480.16;117301;1186;22767;-56
2021/12/07 10:57:47;;;;;;;29.00;16.20;;;;;;;17.02;59.70;99480.17;117276;1186;21874;-56
2021/12/07 11:00:20;;;;;;;;;;;;;;;16.94;59.77;99480.73;117281;1182;21839;-56
2021/12/07 11:03:01;;;;;;;24.80;15.70;;;;;;;16.91;59.86;99480.88;117248;1185;21868;-57
2021/12/07 11:05:38;;;;;;;24.40;14.90;;;;;;;16.91;59.81;99481.62;117306;1186;21866;-60
2021/12/07 11:08:08;;;;;;;21.40;16.10;;;;;;;16.90;59.85;99484.48;117280;1186;21863;-57
2021/12/07 11:10:39;;;;;;;22.60;15.10;;;;;;;17.73;58.23;99476.13;117334;1186;22207;-55
2021/12/07 11:15:52;;;;;;;23.00;15.00;;;;;;;16.11;61.38;99489.72;117294;1186;23541;-57
2021/12/07 11:18:23;;;;;;;23.10;15.90;;;;;;;15.63;62.53;99488.46;117464;1184;21867;-55
2021/12/07 11:20:52;;;;;;;19.60;14.70;;;;;;;15.51;62.84;99482.67;117257;1186;22982;-57
2021/12/07 11:23:33;;;;;;;23.50;16.10;;;;;;;15.42;63.06;99486.27;117315;1186;22891;-57
2021/12/07 11:31:32;;;;;;;18.90;13.20;;;;;;;17.85;57.85;99471.91;117362;1185;21899;-62
2021/12/07 11:34:09;;;;;;;20.70;13.60;;;;;;;16.33;61.08;99485.43;117403;1183;21902;-60
2021/12/07 11:36:41;;;;;;;20.30;13.80;;;;;;;15.60;62.61;99488.43;117265;1184;23551;-60
2021/12/07 11:39:26;;;;;;;22.50;13.00;;;;;;;15.45;62.97;99484.00;117275;1186;21857;-60
2021/12/07 11:42:07;;;;;;;22.40;13.80;;;;;;;15.36;63.18;99471.15;117302;1186;21861;-56
2021/12/07 11:44:58;;;;;;;19.90;13.10;;;;;;;15.28;63.24;99461.08;117313;1186;23555;-60
2021/12/07 11:47:32;;;;;;;21.20;13.40;;;;;;;15.46;62.83;99461.27;117471;1186;22648;-56
2021/12/07 11:50:23;;;;;;;24.20;13.70;;;;;;;15.37;63.00;99460.48;117278;1186;21864;-56
2021/12/07 11:52:57;;;;;;;23.20;13.60;;;;;;;15.17;63.32;99459.85;117307;1186;23954;-62
2021/12/07 11:55:25;;;;;;;18.80;13.40;;;;;;;15.09;63.59;99460.19;117290;1183;21861;-59
2021/12/07 11:57:54;;;;;;;23.70;13.40;;;;;;;15.09;63.55;99455.80;117297;1186;21875;-62
2021/12/07 12:00:29;;;;;;;24.20;14.20;;;;;;;15.09;63.62;99457.55;117465;1186;23436;-62
2021/12/07 12:02:57;;;;;;;24.60;14.40;;;;;;;15.11;63.68;99461.17;117336;1185;21864;-62
2021/12/07 12:05:26;;;;;;;34.40;15.70;;;;;;;15.12;63.65;99456.33;117446;1185;23471;-58
2021/12/07 12:07:56;;;;;;;23.50;14.70;;;;;;;15.15;63.68;99449.70;117279;1186;21927;-62
2021/12/07 12:10:25;;;;;;;30.40;16.90;;;;;;;15.16;63.71;99449.99;117260;1186;23587;-58
2021/12/07 12:13:17;;;;;;;28.70;18.30;;;;;;;15.28;63.48;99451.55;117289;1186;21860;-57
2021/12/07 12:16:25;;;;;;;31.90;17.60;;;;;;;15.20;63.62;99437.43;117315;1180;21864;-60
2021/12/07 12:19:13;;;;;;;30.50;17.60;;;;;;;15.46;63.02;99438.31;117293;1186;21857;-60
2021/12/07 12:21:49;;;;;;;24.50;13.60;;;;;;;15.20;63.68;99428.80;117250;1186;23346;-61
2021/12/07 12:24:58;;;;;;;20.30;12.40;;;;;;;15.18;63.73;99415.79;117372;1189;21848;-62
2021/12/07 12:27:33;;;;;;;21.30;13.30;;;;;;;15.19;63.74;99416.29;116935;1188;21874;-62
2021/12/07 12:30:22;;;;;;;16.90;12.90;;;;;;;15.32;63.42;99413.90;116849;1189;23035;-58
2021/12/07 12:32:59;;;;;;;22.00;12.70;;;;;;;16.51;60.96;99410.02;116909;1189;22092;-62
2021/12/07 12:35:28;;;;;;;20.90;13.50;;;;;;;15.81;62.28;99420.56;116921;1188;23545;-58
2021/12/07 12:37:57;;;;;;;18.70;12.90;;;;;;;15.34;63.39;99426.17;116900;1186;21884;-58
2021/12/07 12:40:30;;;;;;;22.60;13.90;;;;;;;15.27;63.66;99425.07;116929;1184;21867;-58
2021/12/07 12:43:01;;;;;;;19.60;13.90;;;;;;;15.21;63.82;99421.87;116882;1189;22740;-57
2021/12/07 12:45:35;;;;;;;22.30;14.20;;;;;;;15.20;63.86;99422.61;117011;1189;21864;-61
2021/12/07 12:48:11;;;;;;;22.10;15.10;;;;;;;15.19;63.89;99423.55;116835;1186;22932;-58
2021/12/07 12:50:49;;;;;;;19.40;14.50;;;;;;;15.19;63.91;99416.84;116942;1186;23566;-62
2021/12/07 12:53:22;;;;;;;21.40;15.00;;;;;;;15.39;63.51;99414.99;116940;1185;22655;-59
2021/12/07 12:55:54;;;;;;;20.80;15.00;;;;;;;15.23;63.89;99407.97;116943;1189;21867;-58
2021/12/07 12:58:34;;;;;;;23.00;15.50;;;;;;;15.24;64.03;99405.96;117097;1186;21867;-63
2021/12/07 13:01:08;;;;;;;;;;;;;;;15.26;64.06;99401.26;117250;1186;23429;-62
2021/12/07 13:03:43;;;;;;;20.50;13.80;;;;;;;15.28;63.94;99397.80;117449;1183;24275;-63
2021/12/07 13:06:42;;;;;;;19.20;14.00;;;;;;;15.29;63.97;99401.68;117378;1189;21938;-58
2021/12/07 13:09:18;;;;;;;20.40;14.40;;;;;;;15.26;64.05;99413.63;117101;1186;21884;-58
2021/12/07 13:11:50;;;;;;;25.70;15.60;;;;;;;15.68;63.04;99418.87;117344;1185;21862;-56
2021/12/07 13:14:22;;;;;;;24.10;15.00;;;;;;;15.29;63.60;99424.63;117400;1185;23535;-61
2021/12/07 13:17:02;;;;;;;21.70;14.80;;;;;;;15.14;63.78;99422.19;117366;1186;21868;-57
2021/12/07 13:19:31;;;;;;;;;;;;;;;15.02;63.84;99427.11;117401;1186;21848;-57